Time;durP1;ratioP1;P1;durP2;ratioP2;P2;SDS_P1;SDS_P2;PMS_P1;PMS_P2;Temp;Humidity;BMP_temperature;BMP_pressure;BME280_temperature;BME280_humidity;BME280_pressure;Samples;Min_cycle;Max_cycle;Signal;HPM_P1;HPM_P2
2021/10/29 00:00:40;;;;;;;7.57;4.85;;;26.40;92.90;;;;;;5041828;28;20017;-54
2021/10/29 00:03:07;;;;;;;4.82;3.55;;;26.40;92.80;;;;;;5040572;28;20180;-50
2021/10/29 00:05:35;;;;;;;6.35;3.80;;;26.30;92.80;;;;;;5109075;28;20056;-48
2021/10/29 00:08:02;;;;;;;7.10;3.50;;;26.40;92.80;;;;;;5040814;28;20063;-53
2021/10/29 00:10:29;;;;;;;5.90;3.40;;;26.40;92.80;;;;;;5040898;28;20021;-51
2021/10/29 00:12:57;;;;;;;7.32;3.28;;;26.40;92.80;;;;;;5040638;28;20280;-50
2021/10/29 00:15:24;;;;;;;7.18;3.47;;;26.40;92.80;;;;;;5108818;28;20024;-51
2021/10/29 00:17:51;;;;;;;8.43;6.10;;;26.40;92.80;;;;;;5040532;28;20028;-49
2021/10/29 00:20:18;;;;;;;9.27;6.85;;;26.40;92.70;;;;;;5040776;28;20032;-51
2021/10/29 00:22:44;;;;;;;9.35;7.82;;;26.40;92.70;;;;;;5108108;28;20057;-54
2021/10/29 00:25:13;;;;;;;8.13;6.65;;;26.40;92.70;;;;;;5040744;28;20025;-50
2021/10/29 00:27:40;;;;;;;8.77;6.97;;;26.40;92.70;;;;;;5040188;28;20032;-52
2021/10/29 00:30:09;;;;;;;10.00;7.38;;;26.40;92.70;;;;;;5040833;28;20242;-50
2021/10/29 00:32:36;;;;;;;8.75;6.95;;;26.40;92.70;;;;;;5107720;28;20045;-48
2021/10/29 00:35:03;;;;;;;9.93;7.50;;;26.40;92.70;;;;;;5040436;28;20218;-48
2021/10/29 00:37:37;;;;;;;8.75;7.10;;;26.40;92.70;;;;;;5043167;28;20032;-53
2021/10/29 00:40:05;;;;;;;7.70;6.00;;;26.40;92.70;;;;;;5108417;28;20243;-50
2021/10/29 00:42:32;;;;;;;8.63;5.50;;;26.40;92.70;;;;;;5095433;28;20072;-52
2021/10/29 00:44:58;;;;;;;6.70;5.25;;;26.30;92.70;;;;;;5043561;28;20362;-50
2021/10/29 00:47:25;;;;;;;6.93;4.53;;;26.30;92.70;;;;;;5043326;28;20083;-50
2021/10/29 00:49:52;;;;;;;6.47;4.82;;;26.30;92.70;;;;;;5044114;28;20092;-49
2021/10/29 00:52:18;;;;;;;9.98;4.03;;;26.30;92.80;;;;;;5109427;28;20029;-52
2021/10/29 00:54:46;;;;;;;6.28;4.00;;;26.30;92.70;;;;;;5043323;28;20025;-51
2021/10/29 00:57:40;;;;;;;9.43;3.83;;;26.30;92.70;;;;;;5043364;28;20210;-51
2021/10/29 01:00:08;;;;;;;6.65;3.47;;;26.30;92.70;;;;;;5043563;28;20294;-54
2021/10/29 01:02:34;;;;;;;6.93;3.08;;;26.30;92.70;;;;;;5111852;28;20048;-49
2021/10/29 01:05:04;;;;;;;4.80;2.88;;;26.30;92.70;;;;;;5042972;28;20036;-50
2021/10/29 01:07:32;;;;;;;6.28;2.60;;;26.30;92.70;;;;;;5043007;28;20025;-52
2021/10/29 01:10:02;;;;;;;11.65;2.83;;;26.30;92.70;;;;;;5043036;28;20030;-55
2021/10/29 01:12:29;;;;;;;3.25;2.10;;;26.30;92.70;;;;;;5112270;28;20033;-53
2021/10/29 01:15:00;;;;;;;8.45;2.85;;;26.30;92.70;;;;;;5111462;28;20060;-53
2021/10/29 01:17:28;;;;;;;5.07;2.53;;;26.30;92.70;;;;;;5043556;28;20022;-50
2021/10/29 01:19:57;;;;;;;9.73;2.45;;;26.30;92.70;;;;;;5043320;28;20191;-49
2021/10/29 01:22:25;;;;;;;11.55;7.40;;;26.30;92.70;;;;;;5110061;28;20049;-54
2021/10/29 01:24:54;;;;;;;8.13;6.22;;;26.30;92.70;;;;;;5043345;28;20026;-53
2021/10/29 01:27:21;;;;;;;9.68;7.00;;;26.30;92.70;;;;;;5042979;28;20024;-52
2021/10/29 01:29:51;;;;;;;10.02;7.32;;;26.30;92.70;;;;;;5043341;28;20032;-51
2021/10/29 01:32:20;;;;;;;7.63;6.82;;;26.30;92.70;;;;;;5111110;28;20025;-53
2021/10/29 01:34:47;;;;;;;10.35;6.93;;;26.30;92.70;;;;;;5112015;28;20040;-52
2021/10/29 01:37:17;;;;;;;11.18;7.13;;;26.30;92.70;;;;;;5042939;28;20022;-52
2021/10/29 01:39:44;;;;;;;10.40;8.35;;;26.30;92.70;;;;;;5042820;28;20025;-51
2021/10/29 01:42:11;;;;;;;18.23;13.30;;;26.30;92.70;;;;;;5042867;28;20085;-53
2021/10/29 01:44:38;;;;;;;16.83;10.82;;;26.30;92.70;;;;;;5042888;28;20022;-53
2021/10/29 01:47:05;;;;;;;16.80;10.80;;;26.30;92.70;;;;;;5042526;28;20018;-53
2021/10/29 01:49:33;;;;;;;19.77;14.98;;;26.30;92.70;;;;;;5044106;28;20040;-54
2021/10/29 01:52:00;;;;;;;19.17;13.73;;;26.30;92.70;;;;;;5094085;28;20018;-54
2021/10/29 01:54:27;;;;;;;16.30;12.85;;;26.30;92.70;;;;;;5042215;28;20059;-54
2021/10/29 01:56:54;;;;;;;18.83;12.88;;;26.30;92.70;;;;;;5110916;28;20074;-56
2021/10/29 01:59:24;;;;;;;17.85;11.98;;;26.30;92.70;;;;;;5042698;28;20261;-55
2021/10/29 02:01:52;;;;;;;14.27;11.00;;;26.30;92.70;;;;;;5042136;28;20202;-54
2021/10/29 02:04:19;;;;;;;14.38;10.02;;;26.30;92.70;;;;;;5110637;28;20317;-53
2021/10/29 02:06:46;;;;;;;12.43;9.75;;;26.20;92.60;;;;;;5042552;28;20265;-54
2021/10/29 02:09:41;;;;;;;12.38;8.48;;;26.30;92.70;;;;;;5042179;28;20022;-54
2021/10/29 02:12:08;;;;;;;15.98;8.43;;;26.30;92.70;;;;;;5042231;28;20021;-52
2021/10/29 02:14:34;;;;;;;13.25;7.60;;;26.20;92.70;;;;;;5041868;28;20089;-49
2021/10/29 02:17:01;;;;;;;9.77;6.18;;;26.30;92.70;;;;;;5110050;28;20017;-55
2021/10/29 02:19:28;;;;;;;10.35;5.88;;;26.20;92.70;;;;;;5042262;28;20030;-54
2021/10/29 02:21:54;;;;;;;8.02;5.82;;;26.20;92.60;;;;;;5041958;28;20018;-54
2021/10/29 02:24:21;;;;;;;7.63;4.90;;;26.20;92.60;;;;;;5042159;28;20028;-55
2021/10/29 02:26:59;;;;;;;10.45;5.65;;;26.20;92.70;;;;;;5042201;28;20025;-50
2021/10/29 02:29:28;;;;;;;14.60;4.90;;;26.20;92.70;;;;;;5042192;28;20214;-56
2021/10/29 02:31:54;;;;;;;8.15;4.30;;;26.20;92.70;;;;;;5041793;28;20022;-55
2021/10/29 02:34:21;;;;;;;6.53;4.53;;;26.20;92.60;;;;;;5041911;28;20066;-57
2021/10/29 02:36:48;;;;;;;9.77;3.78;;;26.20;92.70;;;;;;5042135;28;20013;-57
2021/10/29 02:39:15;;;;;;;8.95;3.50;;;26.20;92.70;;;;;;5042412;28;20021;-60
2021/10/29 02:41:51;;;;;;;8.85;3.15;;;26.20;93.00;;;;;;5042056;28;20017;-53
2021/10/29 02:44:17;;;;;;;7.28;3.30;;;26.10;92.70;;;;;;5104651;28;20316;-55
2021/10/29 02:53:32;;;;;;;7.75;2.40;;;26.20;92.80;;;;;;5041897;28;20345;-55
2021/10/29 02:55:59;;;;;;;10.00;2.55;;;26.20;92.70;;;;;;5041809;28;20058;-55
2021/10/29 02:58:28;;;;;;;8.18;2.30;;;26.10;92.70;;;;;;5109653;28;20020;-58
2021/10/29 03:00:57;;;;;;;7.65;2.25;;;26.20;92.70;;;;;;5110404;28;20361;-58
2021/10/29 03:03:24;;;;;;;5.43;1.55;;;26.10;92.70;;;;;;5041791;28;20355;-56
2021/10/29 03:05:51;;;;;;;5.93;1.90;;;26.20;92.80;;;;;;5042019;28;20027;-52
2021/10/29 03:08:18;;;;;;;7.20;2.10;;;26.10;92.70;;;;;;5042698;28;20021;-52
2021/10/29 03:10:45;;;;;;;9.75;2.35;;;26.10;92.70;;;;;;5042996;28;20029;-53
2021/10/29 03:13:11;;;;;;;5.75;1.88;;;26.10;92.70;;;;;;5110743;28;20021;-55
2021/10/29 03:15:38;;;;;;;7.20;1.77;;;26.10;92.70;;;;;;5042593;28;20025;-53
2021/10/29 03:18:05;;;;;;;5.32;1.52;;;26.10;92.70;;;;;;5041950;28;20022;-53
2021/10/29 03:20:32;;;;;;;6.80;1.80;;;26.10;92.70;;;;;;5042365;28;20032;-55
2021/10/29 03:22:58;;;;;;;4.72;1.48;;;26.10;92.80;;;;;;5041557;28;20025;-54
2021/10/29 03:25:25;;;;;;;5.90;1.30;;;26.10;92.80;;;;;;5042202;28;20034;-54
2021/10/29 03:27:52;;;;;;;12.60;1.58;;;26.00;92.80;;;;;;5041520;28;20217;-54
2021/10/29 03:30:20;;;;;;;11.90;1.70;;;26.00;92.80;;;;;;5041598;28;20032;-53
2021/10/29 03:32:47;;;;;;;12.57;1.60;;;26.00;92.80;;;;;;5041158;28;20179;-53
2021/10/29 03:35:13;;;;;;;6.40;1.65;;;26.00;92.80;;;;;;5041530;28;20017;-51
2021/10/29 03:40:27;;;;;;;8.00;1.27;;;26.10;92.70;;;;;;5040926;28;20022;-57
2021/10/29 03:45:39;;;;;;;5.85;1.15;;;26.10;92.70;;;;;;5041287;28;20022;-56
2021/10/29 03:48:06;;;;;;;10.20;1.60;;;26.00;92.70;;;;;;5040669;28;20021;-55
2021/10/29 03:50:35;;;;;;;8.05;1.45;;;26.10;92.70;;;;;;5041400;28;20034;-55
2021/10/29 03:53:24;;;;;;;7.43;1.20;;;26.10;92.80;;;;;;5040905;28;20058;-52
2021/10/29 03:55:53;;;;;;;8.45;1.42;;;26.00;92.80;;;;;;5040920;28;20021;-47
2021/10/29 03:58:20;;;;;;;6.35;1.15;;;26.00;92.80;;;;;;5040697;28;20085;-47
2021/10/29 04:00:47;;;;;;;6.07;1.30;;;26.00;92.90;;;;;;5040534;28;20053;-48
2021/10/29 04:03:14;;;;;;;5.82;1.20;;;26.00;92.90;;;;;;5040640;28;20039;-49
2021/10/29 04:05:41;;;;;;;7.10;1.73;;;26.00;92.80;;;;;;5041183;28;20037;-54
2021/10/29 04:08:09;;;;;;;7.97;1.20;;;26.00;92.80;;;;;;5040446;28;20282;-53
2021/10/29 04:10:41;;;;;;;7.03;1.50;;;26.00;92.80;;;;;;5042371;28;20033;-56
2021/10/29 04:13:10;;;;;;;11.32;1.35;;;26.00;92.80;;;;;;5043972;28;20052;-50
2021/10/29 04:15:41;;;;;;;7.20;1.13;;;26.00;92.80;;;;;;5044359;28;20025;-54
2021/10/29 04:18:09;;;;;;;10.05;1.52;;;26.00;92.80;;;;;;5044041;28;20025;-56
2021/10/29 04:20:37;;;;;;;6.88;1.02;;;26.00;92.80;;;;;;5044438;28;20068;-55
2021/10/29 04:23:05;;;;;;;7.30;1.05;;;26.00;92.80;;;;;;5044029;28;20022;-56
2021/10/29 04:25:32;;;;;;;7.18;1.45;;;26.00;92.80;;;;;;5044354;28;20032;-56
2021/10/29 04:28:05;;;;;;;11.75;1.98;;;26.00;92.80;;;;;;5043741;28;20318;-53
2021/10/29 04:30:32;;;;;;;11.10;1.63;;;26.00;92.90;;;;;;5044222;28;20033;-55
2021/10/29 04:33:02;;;;;;;13.65;1.88;;;26.00;92.90;;;;;;5043581;28;20038;-51
2021/10/29 04:35:29;;;;;;;14.23;2.10;;;26.00;92.90;;;;;;5043934;28;20029;-51
2021/10/29 04:37:56;;;;;;;11.82;1.98;;;26.00;92.90;;;;;;5112439;28;20018;-51
2021/10/29 04:40:22;;;;;;;15.35;1.67;;;25.90;92.90;;;;;;5043576;28;20059;-53
2021/10/29 04:42:49;;;;;;;18.98;2.35;;;26.00;92.90;;;;;;5043461;28;20048;-56
2021/10/29 04:45:16;;;;;;;22.10;2.13;;;25.90;92.90;;;;;;5044034;27;20210;-53
2021/10/29 04:47:42;;;;;;;15.55;2.20;;;25.90;92.90;;;;;;5043477;28;20032;-55
2021/10/29 04:50:09;;;;;;;18.42;2.13;;;25.90;92.90;;;;;;5043922;28;20033;-55
2021/10/29 04:52:36;;;;;;;22.25;2.25;;;26.00;92.90;;;;;;5043336;28;20036;-53
2021/10/29 04:55:03;;;;;;;12.70;2.00;;;25.90;92.80;;;;;;5043789;28;20043;-52
2021/10/29 04:57:30;;;;;;;20.30;1.83;;;26.00;92.90;;;;;;5043205;28;20013;-54
2021/10/29 04:59:58;;;;;;;12.73;2.05;;;26.00;92.90;;;;;;5043588;28;20224;-54
2021/10/29 05:02:25;;;;;;;13.32;2.08;;;26.00;92.90;;;;;;5043279;28;20078;-54
2021/10/29 05:04:51;;;;;;;12.57;1.48;;;26.00;92.90;;;;;;5043485;28;20025;-52
2021/10/29 05:07:18;;;;;;;12.00;1.88;;;25.90;92.90;;;;;;5043365;28;20036;-52
2021/10/29 05:09:44;;;;;;;14.35;1.65;;;26.00;92.90;;;;;;5043397;28;20062;-51
2021/10/29 05:12:11;;;;;;;10.30;1.75;;;25.90;92.80;;;;;;5043144;28;20310;-51
2021/10/29 05:14:38;;;;;;;10.57;1.45;;;26.00;92.90;;;;;;5043134;28;20101;-54
2021/10/29 05:17:04;;;;;;;6.13;1.40;;;25.90;92.80;;;;;;5043236;28;20062;-54
2021/10/29 05:19:31;;;;;;;13.98;1.40;;;25.90;92.90;;;;;;5043319;28;20037;-52
2021/10/29 05:21:57;;;;;;;11.30;1.73;;;26.00;92.90;;;;;;5042355;28;20013;-53
2021/10/29 05:24:24;;;;;;;9.90;1.45;;;26.00;92.90;;;;;;5042994;28;20068;-53
2021/10/29 05:26:51;;;;;;;6.50;1.20;;;25.90;92.90;;;;;;5042932;28;20357;-55
2021/10/29 05:29:17;;;;;;;9.73;1.60;;;25.90;93.00;;;;;;5042933;28;20039;-54
2021/10/29 05:31:44;;;;;;;6.50;1.25;;;25.90;92.90;;;;;;5042801;28;20052;-52
2021/10/29 05:34:11;;;;;;;11.80;1.70;;;25.90;92.90;;;;;;5042989;28;20270;-51
2021/10/29 05:36:37;;;;;;;5.85;1.35;;;25.90;92.90;;;;;;5042565;28;20014;-53
2021/10/29 05:39:05;;;;;;;9.30;1.02;;;25.90;92.90;;;;;;5043075;28;20025;-51
2021/10/29 05:41:32;;;;;;;5.85;0.95;;;25.90;92.90;;;;;;5042585;28;20022;-54
2021/10/29 05:44:00;;;;;;;5.38;1.13;;;25.90;92.90;;;;;;5042515;28;20057;-53
2021/10/29 05:46:30;;;;;;;6.20;0.98;;;25.90;92.90;;;;;;5042616;28;20017;-53
2021/10/29 05:48:57;;;;;;;6.55;1.13;;;25.90;92.90;;;;;;5042760;27;20040;-54
2021/10/29 05:51:24;;;;;;;8.77;1.00;;;25.90;92.90;;;;;;5042382;28;20072;-55
2021/10/29 05:54:04;;;;;;;4.03;0.80;;;25.90;92.90;;;;;;5042502;28;20037;-53
2021/10/29 05:56:31;;;;;;;6.65;1.38;;;25.90;92.80;;;;;;5042315;27;20332;-55
2021/10/29 05:59:03;;;;;;;6.38;1.20;;;25.80;92.80;;;;;;5042417;28;20033;-53
2021/10/29 06:01:31;;;;;;;3.92;0.90;;;25.80;92.80;;;;;;5042420;28;20359;-54
2021/10/29 06:03:57;;;;;;;9.73;1.33;;;25.80;92.80;;;;;;5042167;28;20041;-54
2021/10/29 06:06:24;;;;;;;12.70;1.92;;;25.80;92.80;;;;;;5042309;28;20026;-53
2021/10/29 06:08:51;;;;;;;29.88;3.88;;;25.80;92.80;;;;;;5042216;28;20025;-53
2021/10/29 06:11:19;;;;;;;33.33;4.47;;;25.90;92.80;;;;;;5042071;28;20059;-55
2021/10/29 06:13:46;;;;;;;38.13;4.40;;;25.80;92.80;;;;;;5042149;28;20051;-53
2021/10/29 06:16:13;;;;;;;41.08;4.50;;;25.80;92.80;;;;;;5042151;28;20026;-52
2021/10/29 06:18:40;;;;;;;49.65;4.72;;;25.80;92.80;;;;;;5041987;28;20022;-51
2021/10/29 06:21:07;;;;;;;41.08;4.00;;;25.80;92.80;;;;;;5042022;28;20024;-53
2021/10/29 06:23:52;;;;;;;39.70;4.60;;;25.80;92.90;;;;;;5042049;28;20048;-53
2021/10/29 06:26:23;;;;;;;35.72;4.53;;;25.80;92.90;;;;;;5042008;28;20059;-54
2021/10/29 06:28:50;;;;;;;33.63;4.13;;;25.80;92.90;;;;;;5042007;28;20113;-53
2021/10/29 06:31:18;;;;;;;29.88;3.88;;;25.80;92.90;;;;;;5041753;28;20341;-54
2021/10/29 06:33:47;;;;;;;31.30;4.07;;;25.80;92.90;;;;;;5040706;28;20030;-53
2021/10/29 06:36:14;;;;;;;38.45;4.10;;;25.80;93.00;;;;;;5041756;28;20041;-52
2021/10/29 06:38:43;;;;;;;49.40;5.53;;;25.80;93.00;;;;;;5041624;28;20029;-53
2021/10/29 06:41:10;;;;;;;33.50;4.57;;;25.80;92.90;;;;;;5041594;28;20032;-51
2021/10/29 06:43:48;;;;;;;51.45;4.53;;;25.80;92.90;;;;;;5041616;28;20045;-51
2021/10/29 06:46:29;;;;;;;48.28;5.45;;;25.80;92.90;;;;;;5041574;28;20052;-52
2021/10/29 06:52:07;;;;;;;42.83;4.65;;;25.80;92.90;;;;;;5041799;28;20088;-55
2021/10/29 07:40:45;;;;;;;13.05;1.60;;;25.70;92.90;;;;;;5041246;28;20052;-53
2021/10/29 07:43:16;;;;;;;19.52;2.03;;;25.70;92.90;;;;;;5040674;28;20328;-54
2021/10/29 07:45:43;;;;;;;8.83;1.67;;;25.70;92.90;;;;;;5041067;28;20033;-54
2021/10/29 07:48:10;;;;;;;9.13;1.50;;;25.70;92.90;;;;;;5040740;28;20315;-53
2021/10/29 07:50:37;;;;;;;12.13;1.92;;;25.70;92.90;;;;;;5041405;28;20029;-53
2021/10/29 07:53:03;;;;;;;10.95;1.52;;;25.70;92.90;;;;;;5040625;28;20018;-54
2021/10/29 07:55:30;;;;;;;9.95;1.20;;;25.70;92.80;;;;;;5041024;28;20262;-54
2021/10/29 07:58:04;;;;;;;8.30;1.08;;;25.70;92.90;;;;;;5040676;28;20191;-53
2021/10/29 08:00:32;;;;;;;8.20;1.75;;;25.70;92.90;;;;;;5041066;28;20033;-53
2021/10/29 08:03:02;;;;;;;15.73;1.30;;;25.60;92.80;;;;;;5040405;28;20070;-53
2021/10/29 08:05:30;;;;;;;8.25;1.40;;;25.60;92.90;;;;;;5041084;28;20030;-53
2021/10/29 08:07:57;;;;;;;8.05;1.20;;;25.60;92.80;;;;;;5040597;28;20021;-51
2021/10/29 08:10:24;;;;;;;8.70;1.23;;;25.60;92.90;;;;;;5040807;28;20051;-54
2021/10/29 08:12:50;;;;;;;8.30;0.80;;;25.60;92.90;;;;;;5040479;28;20326;-53
2021/10/29 08:15:17;;;;;;;8.68;1.30;;;25.60;92.80;;;;;;5040816;28;20101;-55
2021/10/29 08:17:44;;;;;;;10.70;1.00;;;25.60;92.80;;;;;;5040309;28;20052;-53
2021/10/29 08:20:13;;;;;;;8.77;0.95;;;25.60;92.80;;;;;;5040627;28;20052;-54
2021/10/29 08:22:42;;;;;;;9.75;1.20;;;25.60;92.80;;;;;;5040421;28;20054;-53
2021/10/29 08:25:11;;;;;;;4.50;0.95;;;25.60;92.80;;;;;;5040714;28;20050;-59
2021/10/29 08:27:38;;;;;;;5.43;1.00;;;25.60;92.80;;;;;;5040285;28;20026;-57
2021/10/29 08:30:08;;;;;;;9.30;0.90;;;25.60;92.90;;;;;;5040711;28;20198;-55
2021/10/29 08:32:37;;;;;;;3.53;0.47;;;25.60;92.90;;;;;;5040182;28;20029;-57
2021/10/29 08:35:06;;;;;;;7.25;1.00;;;25.60;92.90;;;;;;5040637;28;20302;-50
2021/10/29 08:37:33;;;;;;;4.97;0.80;;;25.60;92.80;;;;;;5040386;28;20198;-53
2021/10/29 08:40:02;;;;;;;4.40;0.65;;;25.60;92.80;;;;;;5040538;28;20210;-56
2021/10/29 08:42:29;;;;;;;7.25;0.73;;;25.60;92.80;;;;;;5039946;28;20040;-54
2021/10/29 08:44:55;;;;;;;5.53;0.98;;;25.60;92.80;;;;;;5040237;28;20064;-60
2021/10/29 08:47:24;;;;;;;4.38;0.90;;;25.60;92.90;;;;;;5040443;28;20088;-58
2021/10/29 08:49:52;;;;;;;7.10;1.13;;;25.50;92.90;;;;;;5040304;28;20325;-59
2021/10/29 08:52:24;;;;;;;11.85;1.10;;;25.50;92.90;;;;;;5039947;28;20029;-53
2021/10/29 08:54:54;;;;;;;5.70;0.80;;;25.60;93.00;;;;;;5040253;28;20037;-53
2021/10/29 08:57:22;;;;;;;11.75;1.17;;;25.50;92.90;;;;;;5041408;28;20022;-56
2021/10/29 08:59:52;;;;;;;3.60;0.70;;;25.60;92.90;;;;;;5043508;28;20029;-55
2021/10/29 09:07:38;;;;;;;4.18;0.65;;;25.50;92.90;;;;;;5043250;28;20021;-59
2021/10/29 09:16:33;;;;;;;7.82;0.70;;;25.50;93.00;;;;;;5043185;28;20237;-54
2021/10/29 09:32:48;;;;;;;3.42;0.70;;;25.50;93.10;;;;;;5042666;28;20061;-55
2021/10/29 09:35:17;;;;;;;6.88;0.60;;;25.50;93.10;;;;;;5043069;28;20036;-53
2021/10/29 09:37:59;;;;;;;6.53;0.57;;;25.50;93.10;;;;;;5042528;28;20240;-53
2021/10/29 09:40:40;;;;;;;8.70;0.80;;;25.50;93.20;;;;;;5043169;28;20310;-53
2021/10/29 09:43:33;;;;;;;6.22;0.68;;;25.50;93.30;;;;;;5042406;28;20060;-59
2021/10/29 09:46:08;;;;;;;5.55;0.77;;;25.50;93.30;;;;;;5042854;28;20047;-58
2021/10/29 09:48:44;;;;;;;3.60;0.50;;;25.50;93.20;;;;;;5042595;28;20054;-50
2021/10/29 09:51:14;;;;;;;3.67;0.50;;;25.50;93.20;;;;;;5042416;28;20017;-49
2021/10/29 09:53:59;;;;;;;3.83;0.57;;;25.50;93.20;;;;;;5042271;28;20045;-49
2021/10/29 09:58:58;;;;;;;4.32;0.70;;;25.50;93.30;;;;;;5042473;28;20328;-51
2021/10/29 10:01:27;;;;;;;9.65;0.70;;;25.50;93.40;;;;;;5042403;28;20092;-52
2021/10/29 10:03:54;;;;;;;4.00;0.80;;;25.50;93.30;;;;;;5042314;28;20029;-49
2021/10/29 10:06:25;;;;;;;4.60;0.60;;;25.50;93.40;;;;;;5042309;28;20026;-49
2021/10/29 10:08:56;;;;;;;6.75;0.85;;;25.50;93.40;;;;;;5042049;28;20032;-55
2021/10/29 10:11:29;;;;;;;3.80;0.90;;;25.60;93.40;;;;;;5042069;28;20017;-56
2021/10/29 10:13:57;;;;;;;7.75;0.90;;;25.50;93.40;;;;;;5042329;28;20067;-55
2021/10/29 10:16:28;;;;;;;4.32;0.88;;;25.50;93.50;;;;;;5042213;28;20358;-57
2021/10/29 10:18:59;;;;;;;7.85;1.10;;;25.50;93.50;;;;;;5042190;28;20026;-59
2021/10/29 10:21:29;;;;;;;7.05;1.40;;;25.50;93.50;;;;;;5042073;28;20018;-57
2021/10/29 10:24:00;;;;;;;6.88;1.23;;;25.50;93.50;;;;;;5042066;28;20029;-54
2021/10/29 10:29:43;;;;;;;7.13;1.33;;;25.50;93.60;;;;;;5042185;28;20032;-53
2021/10/29 10:41:34;;;;;;;13.25;1.27;;;25.50;93.60;;;;;;5041821;28;20028;-57
2021/10/29 10:44:32;;;;;;;7.72;1.23;;;25.50;93.60;;;;;;5041943;28;20045;-55
2021/10/29 10:47:08;;;;;;;3.92;1.05;;;25.50;93.70;;;;;;5041582;28;20029;-56
2021/10/29 10:49:52;;;;;;;7.63;1.17;;;25.50;93.70;;;;;;5042076;28;20044;-55
2021/10/29 10:52:32;;;;;;;6.43;1.10;;;25.50;93.70;;;;;;5041470;28;20041;-54
2021/10/29 10:55:12;;;;;;;7.47;1.13;;;25.50;93.70;;;;;;5041654;27;20033;-55
2021/10/29 10:57:48;;;;;;;7.10;1.48;;;25.50;93.70;;;;;;5041529;28;20021;-55
2021/10/29 11:11:06;;;;;;;6.05;1.38;;;25.50;93.70;;;;;;5041820;28;20039;-54
2021/10/29 11:13:45;;;;;;;7.28;1.40;;;25.50;93.80;;;;;;5042959;28;20026;-56
2021/10/29 11:16:37;;;;;;;10.43;1.67;;;25.50;93.90;;;;;;5041232;28;20017;-53
2021/10/29 11:19:18;;;;;;;5.85;1.73;;;25.50;93.80;;;;;;5041073;28;20092;-54
2021/10/29 11:21:53;;;;;;;8.68;1.73;;;25.50;93.80;;;;;;5040929;28;20021;-54
2021/10/29 11:24:43;;;;;;;8.88;1.85;;;25.50;93.80;;;;;;5041532;28;20033;-54
2021/10/29 11:27:15;;;;;;;5.70;1.30;;;25.50;93.80;;;;;;5041457;28;20049;-56
2021/10/29 11:29:49;;;;;;;;;;;25.50;93.80;;;;;;5042656;28;20244;-55
2021/10/29 11:32:24;;;;;;;6.78;1.70;;;25.50;93.90;;;;;;5093225;28;19964;-55
2021/10/29 11:34:58;;;;;;;6.75;1.88;;;25.50;94.00;;;;;;5041522;28;20029;-60
2021/10/29 11:37:26;;;;;;;5.45;1.88;;;25.50;94.10;;;;;;5109625;28;20046;-60
2021/10/29 11:39:53;;;;;;;6.35;2.15;;;25.50;94.00;;;;;;5041332;28;20030;-59
2021/10/29 11:42:21;;;;;;;8.13;2.03;;;25.50;94.00;;;;;;5040874;28;20263;-54
2021/10/29 11:44:48;;;;;;;8.77;2.28;;;25.50;94.00;;;;;;5041223;28;20210;-53
2021/10/29 11:47:15;;;;;;;8.02;2.13;;;25.50;94.00;;;;;;5040997;28;20234;-54
2021/10/29 11:49:42;;;;;;;7.20;2.28;;;25.50;93.90;;;;;;5041100;28;20031;-51
2021/10/29 11:52:09;;;;;;;9.25;2.03;;;25.50;93.90;;;;;;5040782;28;20022;-52
2021/10/29 11:54:42;;;;;;;9.98;2.95;;;25.60;93.90;;;;;;5040755;28;20037;-52
2021/10/29 12:07:43;;;;;;;9.13;3.15;;;25.60;94.00;;;;;;5040599;28;20047;-53
2021/10/29 12:10:19;;;;;;;9.77;3.22;;;25.50;94.10;;;;;;5040698;28;20175;-55
2021/10/29 12:12:48;;;;;;;13.32;3.58;;;25.60;94.10;;;;;;5040413;28;20436;-59
2021/10/29 12:15:21;;;;;;;8.60;3.30;;;25.50;94.10;;;;;;5040796;28;20028;-56
2021/10/29 12:17:53;;;;;;;;;;;25.50;94.20;;;;;;5108421;28;20089;-56
2021/10/29 12:20:27;;;;;;;10.65;3.70;;;25.60;94.20;;;;;;5040804;28;19926;-55
2021/10/29 12:23:11;;;;;;;11.60;3.85;;;25.50;94.30;;;;;;5040329;28;20022;-51
2021/10/29 12:25:44;;;;;;;13.10;4.13;;;25.60;94.40;;;;;;5040729;28;20035;-51
2021/10/29 12:28:18;;;;;;;7.43;3.25;;;25.50;94.30;;;;;;5039968;28;20097;-50
2021/10/29 12:39:15;;;;;;;10.77;3.30;;;25.60;94.20;;;;;;5043512;28;20052;-54
2021/10/29 13:02:06;;;;;;;6.30;2.25;;;25.60;94.30;;;;;;5084586;28;20384;-54
2021/10/29 13:04:44;;;;;;;4.43;1.90;;;25.60;94.30;;;;;;5084686;28;20116;-48
2021/10/29 13:07:11;;;;;;;6.03;2.15;;;25.60;94.30;;;;;;5055958;28;20108;-55
2021/10/29 13:09:39;;;;;;;6.20;1.90;;;25.60;94.40;;;;;;5043444;28;20037;-56
2021/10/29 13:14:54;;;;;;;11.73;2.20;;;25.60;94.40;;;;;;5043414;28;20033;-56
2021/10/29 13:17:28;;;;;;;5.07;1.80;;;25.60;94.30;;;;;;5042921;28;20013;-54
2021/10/29 13:35:50;;;;;;;4.32;1.67;;;25.60;94.30;;;;;;5043262;28;20029;-47
2021/10/29 13:57:26;;;;;;;5.55;1.67;;;25.60;94.60;;;;;;5042568;28;20006;-53
2021/10/29 14:24:28;;;;;;;5.45;1.25;;;25.60;94.60;;;;;;5042588;28;20055;-59
2021/10/29 14:32:44;;;;;;;2.90;1.20;;;25.60;94.60;;;;;;5041717;28;20325;-60
2021/10/29 14:35:15;;;;;;;5.82;1.30;;;25.60;94.60;;;;;;5044209;28;20034;-60
2021/10/29 14:38:35;;;;;;;4.15;1.45;;;25.60;94.60;;;;;;5041903;28;20017;-60
2021/10/29 14:40:45;;;;;;;2.58;1.20;;;25.60;94.60;;;;;;5048749;28;20029;-60
2021/10/29 14:48:20;;;;;;;2.80;1.10;;;25.60;94.70;;;;;;5041470;28;20291;-61
2021/10/29 15:17:18;;;;;;;14.43;1.92;;;25.70;95.00;;;;;;5041434;28;20209;-56
2021/10/29 15:25:35;;;;;;;14.98;1.90;;;25.70;94.90;;;;;;5042142;28;20036;-55
2021/10/29 15:28:17;;;;;;;14.75;1.40;;;25.70;94.90;;;;;;5041354;28;20074;-54
2021/10/29 15:33:39;;;;;;;11.50;1.50;;;25.70;95.00;;;;;;5041250;28;20053;-56
2021/10/29 15:42:10;;;;;;;17.23;1.73;;;25.80;94.90;;;;;;5040830;28;20333;-54
2021/10/29 15:44:32;;;;;;;10.07;1.77;;;25.70;94.90;;;;;;5049416;28;20053;-55
2021/10/29 15:47:01;;;;;;;8.32;1.55;;;25.80;94.70;;;;;;5040740;28;20025;-53
2021/10/29 15:49:41;;;;;;;4.57;1.27;;;25.80;94.80;;;;;;5040987;28;20033;-54
2021/10/29 15:52:14;;;;;;;6.13;1.60;;;25.80;94.80;;;;;;5041024;28;20044;-54
2021/10/29 15:54:49;;;;;;;6.30;1.63;;;25.80;94.70;;;;;;5040973;28;20040;-53
2021/10/29 15:57:23;;;;;;;9.57;1.40;;;25.80;94.80;;;;;;5040734;28;20031;-53
2021/10/29 16:02:49;;;;;;;3.47;1.20;;;25.90;94.80;;;;;;5040866;28;20020;-55
2021/10/29 16:18:59;;;;;;;3.80;1.15;;;25.90;94.60;;;;;;5044197;28;20059;-55
2021/10/29 16:21:26;;;;;;;6.43;1.30;;;25.90;94.80;;;;;;5044307;28;20314;-52
2021/10/29 16:23:53;;;;;;;2.83;1.17;;;25.90;94.60;;;;;;5112844;28;20082;-50
2021/10/29 16:26:22;;;;;;;2.58;1.00;;;26.00;94.80;;;;;;5043952;28;20088;-52
2021/10/29 16:28:51;;;;;;;4.85;1.23;;;26.00;94.70;;;;;;5044289;28;20096;-51
2021/10/29 16:31:20;;;;;;;2.63;0.80;;;26.00;94.80;;;;;;5044196;28;20031;-52
2021/10/29 16:33:46;;;;;;;2.83;1.02;;;26.00;94.70;;;;;;5044136;28;20285;-54
2021/10/29 16:36:14;;;;;;;1.83;1.00;;;26.00;94.80;;;;;;5043882;28;20026;-53
2021/10/29 16:38:40;;;;;;;2.92;0.95;;;26.00;94.80;;;;;;5043610;28;20082;-53
2021/10/29 16:41:07;;;;;;;4.05;1.20;;;26.00;94.90;;;;;;5043599;28;20292;-55
2021/10/29 16:43:52;;;;;;;7.38;1.00;;;26.00;94.70;;;;;;5043610;28;20086;-54
2021/10/29 16:46:18;;;;;;;6.20;0.98;;;26.00;94.60;;;;;;5043739;28;20092;-54
2021/10/29 16:48:45;;;;;;;3.60;0.82;;;26.00;94.50;;;;;;5043935;28;20067;-55
2021/10/29 16:51:14;;;;;;;1.65;0.80;;;26.10;94.50;;;;;;5111799;28;20332;-53
2021/10/29 16:53:41;;;;;;;1.33;1.00;;;26.00;94.40;;;;;;5043786;28;20059;-55
2021/10/29 16:56:09;;;;;;;1.40;0.90;;;26.10;94.40;;;;;;5043771;28;20044;-53
2021/10/29 16:58:36;;;;;;;3.30;1.10;;;26.10;94.60;;;;;;5043323;28;20013;-55
2021/10/29 17:01:03;;;;;;;1.98;1.00;;;26.10;94.60;;;;;;5043745;28;20021;-61
2021/10/29 17:03:29;;;;;;;2.88;1.00;;;26.10;94.50;;;;;;5112277;28;20028;-54
2021/10/29 17:05:56;;;;;;;1.48;0.80;;;26.10;94.50;;;;;;5043633;28;20313;-56
2021/10/29 17:08:23;;;;;;;1.52;0.95;;;26.10;94.50;;;;;;5043332;28;20056;-55
2021/10/29 17:10:50;;;;;;;0.90;0.88;;;26.10;94.60;;;;;;5043766;28;20029;-53
2021/10/29 17:13:16;;;;;;;4.20;1.00;;;26.10;94.50;;;;;;5043547;28;20022;-54
2021/10/29 17:15:43;;;;;;;1.92;0.85;;;26.10;94.40;;;;;;5112465;28;20070;-55
2021/10/29 17:18:11;;;;;;;5.55;0.70;;;26.20;94.40;;;;;;5042442;28;20018;-54
2021/10/29 17:20:38;;;;;;;1.83;0.80;;;26.20;94.50;;;;;;5043427;28;20017;-53
2021/10/29 17:23:05;;;;;;;2.63;0.80;;;26.20;94.40;;;;;;5043104;28;20028;-55
2021/10/29 17:25:32;;;;;;;1.23;0.70;;;26.20;94.30;;;;;;5043516;28;20053;-54
2021/10/29 17:27:59;;;;;;;5.75;1.10;;;26.20;94.40;;;;;;5042907;28;20325;-52
2021/10/29 17:30:26;;;;;;;2.45;0.80;;;26.20;94.30;;;;;;5043349;28;20059;-54
2021/10/29 17:32:52;;;;;;;4.63;0.80;;;26.20;94.30;;;;;;5042957;28;20029;-53
2021/10/29 17:35:20;;;;;;;4.15;1.02;;;26.20;94.20;;;;;;5043306;28;20017;-56
2021/10/29 17:37:48;;;;;;;3.15;0.95;;;26.20;94.40;;;;;;5042761;28;20028;-54